sensor_id;sensor_type;location;lat;lon;timestamp;P1;durP1;ratioP1;P2;durP2;ratioP2
7142;SDS011;3613;48.902;9.204;2024-03-22T00:01:53;4.47;;;3.40;;
7142;SDS011;3613;48.902;9.204;2024-03-22T00:04:22;3.73;;;2.87;;
7142;SDS011;3613;48.902;9.204;2024-03-22T00:06:50;5.13;;;3.47;;
7142;SDS011;3613;48.902;9.204;2024-03-22T00:09:15;3.77;;;2.87;;
7142;SDS011;3613;48.902;9.204;2024-03-22T00:11:42;4.63;;;3.07;;
7142;SDS011;3613;48.902;9.204;2024-03-22T00:14:09;4.27;;;2.77;;
7142;SDS011;3613;48.902;9.204;2024-03-22T00:16:35;4.33;;;3.20;;
7142;SDS011;3613;48.902;9.204;2024-03-22T00:19:01;5.73;;;3.03;;
7142;SDS011;3613;48.902;9.204;2024-03-22T00:21:27;3.57;;;3.03;;
7142;SDS011;3613;48.902;9.204;2024-03-22T00:23:56;5.07;;;3.03;;
7142;SDS011;3613;48.902;9.204;2024-03-22T00:26:22;6.20;;;3.43;;
7142;SDS011;3613;48.902;9.204;2024-03-22T00:28:48;3.57;;;3.03;;
7142;SDS011;3613;48.902;9.204;2024-03-22T00:31:14;3.83;;;3.10;;
7142;SDS011;3613;48.902;9.204;2024-03-22T00:33:40;4.23;;;3.20;;
7142;SDS011;3613;48.902;9.204;2024-03-22T00:36:06;5.17;;;3.23;;
7142;SDS011;3613;48.902;9.204;2024-03-22T00:38:32;3.33;;;2.93;;
7142;SDS011;3613;48.902;9.204;2024-03-22T00:40:58;5.23;;;3.30;;
7142;SDS011;3613;48.902;9.204;2024-03-22T00:43:23;3.80;;;3.37;;
7142;SDS011;3613;48.902;9.204;2024-03-22T00:45:49;4.13;;;3.07;;
7142;SDS011;3613;48.902;9.204;2024-03-22T00:48:17;4.63;;;3.13;;
7142;SDS011;3613;48.902;9.204;2024-03-22T00:50:43;3.80;;;3.00;;
7142;SDS011;3613;48.902;9.204;2024-03-22T00:53:08;4.27;;;3.30;;
7142;SDS011;3613;48.902;9.204;2024-03-22T00:55:35;4.03;;;3.23;;
7142;SDS011;3613;48.902;9.204;2024-03-22T00:58:00;4.37;;;3.60;;
7142;SDS011;3613;48.902;9.204;2024-03-22T01:00:26;4.50;;;3.37;;
7142;SDS011;3613;48.902;9.204;2024-03-22T01:02:52;3.97;;;2.83;;
7142;SDS011;3613;48.902;9.204;2024-03-22T01:05:20;3.63;;;2.87;;
7142;SDS011;3613;48.902;9.204;2024-03-22T01:07:46;3.60;;;3.03;;
7142;SDS011;3613;48.902;9.204;2024-03-22T01:10:13;3.57;;;2.97;;
7142;SDS011;3613;48.902;9.204;2024-03-22T01:12:44;4.60;;;3.43;;
7142;SDS011;3613;48.902;9.204;2024-03-22T01:15:09;3.47;;;2.93;;
7142;SDS011;3613;48.902;9.204;2024-03-22T01:17:35;3.93;;;3.47;;
7142;SDS011;3613;48.902;9.204;2024-03-22T01:20:03;4.77;;;3.20;;
7142;SDS011;3613;48.902;9.204;2024-03-22T01:22:29;3.77;;;3.00;;
7142;SDS011;3613;48.902;9.204;2024-03-22T01:24:55;3.40;;;3.10;;
7142;SDS011;3613;48.902;9.204;2024-03-22T01:27:21;3.30;;;3.00;;
7142;SDS011;3613;48.902;9.204;2024-03-22T01:29:48;3.43;;;3.10;;
7142;SDS011;3613;48.902;9.204;2024-03-22T01:32:16;3.83;;;3.30;;
7142;SDS011;3613;48.902;9.204;2024-03-22T01:34:41;3.87;;;3.20;;
7142;SDS011;3613;48.902;9.204;2024-03-22T01:37:07;4.47;;;3.43;;
7142;SDS011;3613;48.902;9.204;2024-03-22T01:39:33;4.73;;;3.43;;
7142;SDS011;3613;48.902;9.204;2024-03-22T01:41:58;4.33;;;3.47;;
7142;SDS011;3613;48.902;9.204;2024-03-22T01:44:28;5.17;;;3.10;;
7142;SDS011;3613;48.902;9.204;2024-03-22T01:46:54;3.30;;;2.83;;
7142;SDS011;3613;48.902;9.204;2024-03-22T01:49:20;4.57;;;3.30;;
7142;SDS011;3613;48.902;9.204;2024-03-22T01:51:49;3.53;;;3.13;;
7142;SDS011;3613;48.902;9.204;2024-03-22T01:54:15;4.40;;;3.20;;
7142;SDS011;3613;48.902;9.204;2024-03-22T01:56:44;4.77;;;3.40;;
7142;SDS011;3613;48.902;9.204;2024-03-22T01:59:09;3.20;;;2.90;;
7142;SDS011;3613;48.902;9.204;2024-03-22T02:01:35;6.10;;;3.00;;
7142;SDS011;3613;48.902;9.204;2024-03-22T02:04:04;4.30;;;3.27;;
7142;SDS011;3613;48.902;9.204;2024-03-22T02:06:29;4.27;;;3.23;;
7142;SDS011;3613;48.902;9.204;2024-03-22T02:08:56;3.87;;;3.03;;
7142;SDS011;3613;48.902;9.204;2024-03-22T02:11:22;3.43;;;3.13;;
7142;SDS011;3613;48.902;9.204;2024-03-22T02:13:51;3.17;;;2.73;;
7142;SDS011;3613;48.902;9.204;2024-03-22T02:16:17;3.73;;;2.80;;
7142;SDS011;3613;48.902;9.204;2024-03-22T02:18:42;4.87;;;3.20;;
7142;SDS011;3613;48.902;9.204;2024-03-22T02:21:09;5.03;;;3.80;;
7142;SDS011;3613;48.902;9.204;2024-03-22T02:23:36;3.70;;;3.00;;
7142;SDS011;3613;48.902;9.204;2024-03-22T02:26:03;3.83;;;2.80;;
7142;SDS011;3613;48.902;9.204;2024-03-22T02:28:30;4.77;;;2.90;;
7142;SDS011;3613;48.902;9.204;2024-03-22T02:30:58;3.47;;;2.97;;
7142;SDS011;3613;48.902;9.204;2024-03-22T02:33:24;4.10;;;3.07;;
7142;SDS011;3613;48.902;9.204;2024-03-22T02:35:50;3.63;;;2.90;;
7142;SDS011;3613;48.902;9.204;2024-03-22T02:38:16;3.20;;;2.87;;
7142;SDS011;3613;48.902;9.204;2024-03-22T02:40:45;3.30;;;3.00;;
7142;SDS011;3613;48.902;9.204;2024-03-22T02:43:14;3.17;;;2.87;;
7142;SDS011;3613;48.902;9.204;2024-03-22T02:45:39;3.90;;;2.97;;
7142;SDS011;3613;48.902;9.204;2024-03-22T02:48:05;4.20;;;3.30;;
7142;SDS011;3613;48.902;9.204;2024-03-22T02:50:34;3.40;;;3.10;;
7142;SDS011;3613;48.902;9.204;2024-03-22T02:53:09;3.40;;;3.10;;
7142;SDS011;3613;48.902;9.204;2024-03-22T02:55:38;4.27;;;2.97;;
7142;SDS011;3613;48.902;9.204;2024-03-22T02:58:05;3.93;;;3.20;;
7142;SDS011;3613;48.902;9.204;2024-03-22T03:00:36;3.73;;;3.33;;
7142;SDS011;3613;48.902;9.204;2024-03-22T03:03:03;4.23;;;2.73;;
7142;SDS011;3613;48.902;9.204;2024-03-22T03:05:29;4.37;;;3.33;;
7142;SDS011;3613;48.902;9.204;2024-03-22T03:07:57;3.70;;;3.27;;
7142;SDS011;3613;48.902;9.204;2024-03-22T03:10:23;4.70;;;3.70;;
7142;SDS011;3613;48.902;9.204;2024-03-22T03:12:48;3.77;;;3.17;;
7142;SDS011;3613;48.902;9.204;2024-03-22T03:15:15;4.47;;;3.13;;
7142;SDS011;3613;48.902;9.204;2024-03-22T03:17:40;3.67;;;2.87;;
7142;SDS011;3613;48.902;9.204;2024-03-22T03:20:06;3.33;;;2.83;;
7142;SDS011;3613;48.902;9.204;2024-03-22T03:22:35;3.03;;;2.43;;
7142;SDS011;3613;48.902;9.204;2024-03-22T03:25:01;4.07;;;3.10;;
7142;SDS011;3613;48.902;9.204;2024-03-22T03:27:29;3.80;;;3.20;;
7142;SDS011;3613;48.902;9.204;2024-03-22T03:29:57;3.20;;;2.90;;
7142;SDS011;3613;48.902;9.204;2024-03-22T03:32:22;4.83;;;3.50;;
7142;SDS011;3613;48.902;9.204;2024-03-22T03:34:49;4.73;;;3.30;;
7142;SDS011;3613;48.902;9.204;2024-03-22T03:37:15;3.93;;;2.90;;
7142;SDS011;3613;48.902;9.204;2024-03-22T03:39:41;3.07;;;2.73;;
7142;SDS011;3613;48.902;9.204;2024-03-22T03:42:06;4.53;;;2.90;;
7142;SDS011;3613;48.902;9.204;2024-03-22T03:44:32;3.43;;;3.00;;
7142;SDS011;3613;48.902;9.204;2024-03-22T03:46:59;3.60;;;3.23;;
7142;SDS011;3613;48.902;9.204;2024-03-22T03:49:25;3.10;;;2.87;;
7142;SDS011;3613;48.902;9.204;2024-03-22T03:51:51;3.50;;;3.00;;
7142;SDS011;3613;48.902;9.204;2024-03-22T03:54:16;3.80;;;2.63;;
7142;SDS011;3613;48.902;9.204;2024-03-22T03:56:42;4.03;;;2.93;;
7142;SDS011;3613;48.902;9.204;2024-03-22T03:59:07;4.00;;;3.20;;
7142;SDS011;3613;48.902;9.204;2024-03-22T04:01:35;3.83;;;3.13;;
7142;SDS011;3613;48.902;9.204;2024-03-22T04:04:02;3.37;;;3.07;;
7142;SDS011;3613;48.902;9.204;2024-03-22T04:06:28;3.40;;;2.73;;
7142;SDS011;3613;48.902;9.204;2024-03-22T04:08:56;3.33;;;2.70;;
7142;SDS011;3613;48.902;9.204;2024-03-22T04:11:22;3.47;;;2.90;;
7142;SDS011;3613;48.902;9.204;2024-03-22T04:13:48;4.37;;;3.00;;
7142;SDS011;3613;48.902;9.204;2024-03-22T04:16:13;3.33;;;2.90;;
7142;SDS011;3613;48.902;9.204;2024-03-22T04:18:39;3.23;;;2.90;;
7142;SDS011;3613;48.902;9.204;2024-03-22T04:21:05;3.87;;;2.97;;
7142;SDS011;3613;48.902;9.204;2024-03-22T04:23:30;3.63;;;2.93;;
7142;SDS011;3613;48.902;9.204;2024-03-22T04:25:56;3.40;;;3.00;;
7142;SDS011;3613;48.902;9.204;2024-03-22T04:28:23;3.77;;;3.10;;
7142;SDS011;3613;48.902;9.204;2024-03-22T04:33:21;3.30;;;3.00;;
7142;SDS011;3613;48.902;9.204;2024-03-22T04:35:47;3.57;;;2.93;;
7142;SDS011;3613;48.902;9.204;2024-03-22T04:38:12;3.63;;;3.33;;
7142;SDS011;3613;48.902;9.204;2024-03-22T04:40:38;3.70;;;3.20;;
7142;SDS011;3613;48.902;9.204;2024-03-22T04:43:04;3.37;;;2.63;;
7142;SDS011;3613;48.902;9.204;2024-03-22T04:45:29;3.47;;;2.60;;
7142;SDS011;3613;48.902;9.204;2024-03-22T04:47:55;3.17;;;2.87;;
7142;SDS011;3613;48.902;9.204;2024-03-22T04:50:21;3.93;;;2.97;;
7142;SDS011;3613;48.902;9.204;2024-03-22T04:52:46;3.10;;;2.80;;
7142;SDS011;3613;48.902;9.204;2024-03-22T04:55:12;3.60;;;2.97;;
7142;SDS011;3613;48.902;9.204;2024-03-22T04:57:37;3.30;;;2.80;;
7142;SDS011;3613;48.902;9.204;2024-03-22T05:00:05;4.17;;;2.90;;
7142;SDS011;3613;48.902;9.204;2024-03-22T05:02:33;3.90;;;3.10;;
7142;SDS011;3613;48.902;9.204;2024-03-22T05:05:01;3.37;;;2.73;;
7142;SDS011;3613;48.902;9.204;2024-03-22T05:07:27;4.47;;;2.83;;
7142;SDS011;3613;48.902;9.204;2024-03-22T05:09:52;3.10;;;2.80;;
7142;SDS011;3613;48.902;9.204;2024-03-22T05:12:18;2.97;;;2.67;;
7142;SDS011;3613;48.902;9.204;2024-03-22T05:14:43;3.77;;;3.20;;
7142;SDS011;3613;48.902;9.204;2024-03-22T05:17:09;3.43;;;3.10;;
7142;SDS011;3613;48.902;9.204;2024-03-22T05:19:35;3.87;;;2.80;;
7142;SDS011;3613;48.902;9.204;2024-03-22T05:22:00;2.90;;;2.60;;
7142;SDS011;3613;48.902;9.204;2024-03-22T05:24:26;3.30;;;3.00;;
7142;SDS011;3613;48.902;9.204;2024-03-22T05:26:52;3.53;;;3.00;;
7142;SDS011;3613;48.902;9.204;2024-03-22T05:29:20;3.53;;;3.10;;
7142;SDS011;3613;48.902;9.204;2024-03-22T05:31:47;4.00;;;3.60;;
7142;SDS011;3613;48.902;9.204;2024-03-22T05:34:14;4.20;;;3.30;;
7142;SDS011;3613;48.902;9.204;2024-03-22T05:36:40;3.40;;;3.10;;
7142;SDS011;3613;48.902;9.204;2024-03-22T05:39:06;4.53;;;3.27;;
7142;SDS011;3613;48.902;9.204;2024-03-22T05:41:31;3.10;;;2.80;;
7142;SDS011;3613;48.902;9.204;2024-03-22T05:43:57;3.03;;;2.73;;
7142;SDS011;3613;48.902;9.204;2024-03-22T05:46:27;3.57;;;2.97;;
7142;SDS011;3613;48.902;9.204;2024-03-22T05:48:52;3.80;;;3.10;;
7142;SDS011;3613;48.902;9.204;2024-03-22T05:51:18;3.50;;;3.17;;
7142;SDS011;3613;48.902;9.204;2024-03-22T05:53:44;4.10;;;3.07;;
7142;SDS011;3613;48.902;9.204;2024-03-22T05:56:10;3.70;;;3.40;;
7142;SDS011;3613;48.902;9.204;2024-03-22T05:58:35;3.33;;;3.03;;
7142;SDS011;3613;48.902;9.204;2024-03-22T06:01:03;3.67;;;3.37;;
7142;SDS011;3613;48.902;9.204;2024-03-22T06:03:29;3.37;;;3.07;;
7142;SDS011;3613;48.902;9.204;2024-03-22T06:05:55;3.90;;;3.50;;
7142;SDS011;3613;48.902;9.204;2024-03-22T06:08:24;3.97;;;2.90;;
7142;SDS011;3613;48.902;9.204;2024-03-22T06:10:50;3.90;;;2.93;;
7142;SDS011;3613;48.902;9.204;2024-03-22T06:13:19;3.43;;;3.03;;
7142;SDS011;3613;48.902;9.204;2024-03-22T06:15:46;3.30;;;3.00;;
7142;SDS011;3613;48.902;9.204;2024-03-22T06:18:14;4.43;;;3.20;;
7142;SDS011;3613;48.902;9.204;2024-03-22T06:20:42;3.53;;;2.93;;
7142;SDS011;3613;48.902;9.204;2024-03-22T06:23:08;3.40;;;2.90;;
7142;SDS011;3613;48.902;9.204;2024-03-22T06:25:34;3.37;;;2.70;;
7142;SDS011;3613;48.902;9.204;2024-03-22T06:28:00;4.00;;;2.87;;
7142;SDS011;3613;48.902;9.204;2024-03-22T06:30:26;4.27;;;3.23;;
7142;SDS011;3613;48.902;9.204;2024-03-22T06:32:53;5.37;;;4.03;;
7142;SDS011;3613;48.902;9.204;2024-03-22T06:35:20;5.17;;;4.23;;
7142;SDS011;3613;48.902;9.204;2024-03-22T06:37:48;6.33;;;4.83;;
7142;SDS011;3613;48.902;9.204;2024-03-22T06:40:16;11.07;;;6.33;;
7142;SDS011;3613;48.902;9.204;2024-03-22T06:42:42;6.83;;;4.73;;
7142;SDS011;3613;48.902;9.204;2024-03-22T06:45:07;8.20;;;5.57;;
7142;SDS011;3613;48.902;9.204;2024-03-22T06:47:33;8.37;;;5.50;;
7142;SDS011;3613;48.902;9.204;2024-03-22T06:50:01;7.80;;;5.43;;
7142;SDS011;3613;48.902;9.204;2024-03-22T06:52:27;6.83;;;4.67;;
7142;SDS011;3613;48.902;9.204;2024-03-22T06:54:52;6.43;;;4.60;;
7142;SDS011;3613;48.902;9.204;2024-03-22T06:57:18;5.97;;;4.67;;
7142;SDS011;3613;48.902;9.204;2024-03-22T06:59:44;8.13;;;5.00;;
7142;SDS011;3613;48.902;9.204;2024-03-22T07:02:09;7.33;;;4.80;;
7142;SDS011;3613;48.902;9.204;2024-03-22T07:04:35;7.67;;;5.03;;
7142;SDS011;3613;48.902;9.204;2024-03-22T07:07:03;10.10;;;5.90;;
7142;SDS011;3613;48.902;9.204;2024-03-22T07:09:28;8.37;;;5.50;;
7142;SDS011;3613;48.902;9.204;2024-03-22T07:11:57;7.93;;;5.97;;
7142;SDS011;3613;48.902;9.204;2024-03-22T07:14:22;8.70;;;5.83;;
7142;SDS011;3613;48.902;9.204;2024-03-22T07:16:50;11.60;;;5.60;;
7142;SDS011;3613;48.902;9.204;2024-03-22T07:19:18;7.97;;;6.23;;
7142;SDS011;3613;48.902;9.204;2024-03-22T07:21:48;8.47;;;5.83;;
7142;SDS011;3613;48.902;9.204;2024-03-22T07:24:15;7.57;;;4.90;;
7142;SDS011;3613;48.902;9.204;2024-03-22T07:26:42;5.40;;;4.33;;
7142;SDS011;3613;48.902;9.204;2024-03-22T07:29:08;6.27;;;3.93;;
7142;SDS011;3613;48.902;9.204;2024-03-22T07:31:36;5.50;;;4.30;;
7142;SDS011;3613;48.902;9.204;2024-03-22T07:34:02;4.47;;;3.60;;
7142;SDS011;3613;48.902;9.204;2024-03-22T07:36:27;4.33;;;3.93;;
7142;SDS011;3613;48.902;9.204;2024-03-22T07:38:55;3.97;;;3.57;;
7142;SDS011;3613;48.902;9.204;2024-03-22T07:41:23;5.03;;;3.63;;
7142;SDS011;3613;48.902;9.204;2024-03-22T07:43:48;5.20;;;3.63;;
7142;SDS011;3613;48.902;9.204;2024-03-22T07:46:16;4.60;;;3.37;;
7142;SDS011;3613;48.902;9.204;2024-03-22T07:48:42;4.97;;;3.63;;
7142;SDS011;3613;48.902;9.204;2024-03-22T07:51:07;3.97;;;3.27;;
7142;SDS011;3613;48.902;9.204;2024-03-22T07:53:33;4.33;;;3.50;;
7142;SDS011;3613;48.902;9.204;2024-03-22T07:56:01;3.70;;;3.17;;
7142;SDS011;3613;48.902;9.204;2024-03-22T07:58:26;8.47;;;3.77;;
7142;SDS011;3613;48.902;9.204;2024-03-22T08:00:54;4.03;;;3.10;;
7142;SDS011;3613;48.902;9.204;2024-03-22T08:03:21;4.37;;;3.30;;
7142;SDS011;3613;48.902;9.204;2024-03-22T08:05:46;3.97;;;3.03;;
7142;SDS011;3613;48.902;9.204;2024-03-22T08:08:12;3.67;;;3.27;;
7142;SDS011;3613;48.902;9.204;2024-03-22T08:10:38;3.77;;;3.30;;
7142;SDS011;3613;48.902;9.204;2024-03-22T08:13:03;4.43;;;3.40;;
7142;SDS011;3613;48.902;9.204;2024-03-22T08:15:29;4.07;;;3.23;;
7142;SDS011;3613;48.902;9.204;2024-03-22T08:17:55;4.37;;;3.50;;
7142;SDS011;3613;48.902;9.204;2024-03-22T08:20:23;3.43;;;2.83;;
7142;SDS011;3613;48.902;9.204;2024-03-22T08:22:49;4.40;;;3.20;;
7142;SDS011;3613;48.902;9.204;2024-03-22T08:25:15;3.40;;;3.10;;
7142;SDS011;3613;48.902;9.204;2024-03-22T08:27:45;3.50;;;3.07;;
7142;SDS011;3613;48.902;9.204;2024-03-22T08:30:11;4.93;;;3.30;;
7142;SDS011;3613;48.902;9.204;2024-03-22T08:32:38;3.00;;;2.70;;
7142;SDS011;3613;48.902;9.204;2024-03-22T08:35:03;3.80;;;2.93;;
7142;SDS011;3613;48.902;9.204;2024-03-22T08:37:30;3.13;;;2.73;;
7142;SDS011;3613;48.902;9.204;2024-03-22T08:39:55;3.77;;;3.00;;
7142;SDS011;3613;48.902;9.204;2024-03-22T08:42:21;4.30;;;3.90;;
7142;SDS011;3613;48.902;9.204;2024-03-22T08:44:49;3.10;;;2.80;;
7142;SDS011;3613;48.902;9.204;2024-03-22T08:47:14;4.17;;;3.03;;
7142;SDS011;3613;48.902;9.204;2024-03-22T08:49:42;3.70;;;2.93;;
7142;SDS011;3613;48.902;9.204;2024-03-22T08:52:09;4.00;;;3.17;;
7142;SDS011;3613;48.902;9.204;2024-03-22T08:54:37;4.73;;;3.40;;
7142;SDS011;3613;48.902;9.204;2024-03-22T08:57:03;3.43;;;3.03;;
7142;SDS011;3613;48.902;9.204;2024-03-22T08:59:31;3.27;;;2.97;;
7142;SDS011;3613;48.902;9.204;2024-03-22T09:01:57;3.67;;;2.90;;
7142;SDS011;3613;48.902;9.204;2024-03-22T09:04:22;3.30;;;2.60;;
7142;SDS011;3613;48.902;9.204;2024-03-22T09:06:48;3.57;;;3.00;;
7142;SDS011;3613;48.902;9.204;2024-03-22T09:09:13;4.60;;;3.50;;
7142;SDS011;3613;48.902;9.204;2024-03-22T09:11:39;4.13;;;3.37;;
7142;SDS011;3613;48.902;9.204;2024-03-22T09:14:07;4.03;;;3.20;;
7142;SDS011;3613;48.902;9.204;2024-03-22T09:16:34;4.00;;;2.87;;
7142;SDS011;3613;48.902;9.204;2024-03-22T09:19:00;3.60;;;3.10;;
7142;SDS011;3613;48.902;9.204;2024-03-22T09:21:26;3.63;;;3.13;;
7142;SDS011;3613;48.902;9.204;2024-03-22T09:23:54;3.53;;;2.87;;
7142;SDS011;3613;48.902;9.204;2024-03-22T09:26:19;3.33;;;3.03;;
7142;SDS011;3613;48.902;9.204;2024-03-22T09:28:48;3.53;;;3.23;;
7142;SDS011;3613;48.902;9.204;2024-03-22T09:31:15;4.13;;;3.07;;
7142;SDS011;3613;48.902;9.204;2024-03-22T09:33:41;4.00;;;3.47;;
7142;SDS011;3613;48.902;9.204;2024-03-22T09:36:07;3.17;;;2.67;;
7142;SDS011;3613;48.902;9.204;2024-03-22T09:38:33;4.27;;;3.20;;
7142;SDS011;3613;48.902;9.204;2024-03-22T09:41:01;5.30;;;3.67;;
7142;SDS011;3613;48.902;9.204;2024-03-22T09:43:27;4.00;;;3.20;;
7142;SDS011;3613;48.902;9.204;2024-03-22T09:45:54;4.43;;;3.43;;
7142;SDS011;3613;48.902;9.204;2024-03-22T09:48:20;3.27;;;2.70;;
7142;SDS011;3613;48.902;9.204;2024-03-22T09:50:46;3.77;;;3.10;;
7142;SDS011;3613;48.902;9.204;2024-03-22T09:53:20;4.27;;;2.80;;
7142;SDS011;3613;48.902;9.204;2024-03-22T09:55:47;3.17;;;2.87;;
7142;SDS011;3613;48.902;9.204;2024-03-22T09:58:14;2.83;;;2.57;;
7142;SDS011;3613;48.902;9.204;2024-03-22T10:00:43;3.53;;;3.23;;
7142;SDS011;3613;48.902;9.204;2024-03-22T10:03:09;3.33;;;2.90;;
7142;SDS011;3613;48.902;9.204;2024-03-22T10:05:36;3.40;;;2.77;;
7142;SDS011;3613;48.902;9.204;2024-03-22T10:08:04;4.07;;;2.83;;
7142;SDS011;3613;48.902;9.204;2024-03-22T10:10:33;3.67;;;3.27;;
7142;SDS011;3613;48.902;9.204;2024-03-22T10:13:02;3.00;;;2.63;;
7142;SDS011;3613;48.902;9.204;2024-03-22T10:15:29;2.97;;;2.30;;
7142;SDS011;3613;48.902;9.204;2024-03-22T10:17:58;2.90;;;2.60;;
7142;SDS011;3613;48.902;9.204;2024-03-22T10:20:26;3.47;;;2.50;;
7142;SDS011;3613;48.902;9.204;2024-03-22T10:22:58;2.80;;;2.47;;
7142;SDS011;3613;48.902;9.204;2024-03-22T10:25:27;2.97;;;2.67;;
7142;SDS011;3613;48.902;9.204;2024-03-22T10:27:53;3.13;;;2.70;;
7142;SDS011;3613;48.902;9.204;2024-03-22T10:30:20;3.53;;;2.80;;
7142;SDS011;3613;48.902;9.204;2024-03-22T10:32:47;3.40;;;3.10;;
7142;SDS011;3613;48.902;9.204;2024-03-22T10:35:13;3.30;;;2.90;;
7142;SDS011;3613;48.902;9.204;2024-03-22T10:37:40;3.10;;;2.80;;
7142;SDS011;3613;48.902;9.204;2024-03-22T10:40:06;2.70;;;2.50;;
7142;SDS011;3613;48.902;9.204;2024-03-22T10:42:33;3.20;;;2.67;;
7142;SDS011;3613;48.902;9.204;2024-03-22T10:44:59;3.43;;;2.70;;
7142;SDS011;3613;48.902;9.204;2024-03-22T10:47:29;3.50;;;2.50;;
7142;SDS011;3613;48.902;9.204;2024-03-22T10:50:14;2.63;;;2.20;;
7142;SDS011;3613;48.902;9.204;2024-03-22T10:52:47;2.90;;;2.30;;
7142;SDS011;3613;48.902;9.204;2024-03-22T10:55:40;2.77;;;2.47;;
7142;SDS011;3613;48.902;9.204;2024-03-22T10:58:14;2.40;;;2.20;;
7142;SDS011;3613;48.902;9.204;2024-03-22T11:00:43;2.40;;;2.20;;
7142;SDS011;3613;48.902;9.204;2024-03-22T11:03:09;3.43;;;2.60;;
7142;SDS011;3613;48.902;9.204;2024-03-22T11:05:56;3.53;;;2.03;;
7142;SDS011;3613;48.902;9.204;2024-03-22T11:08:29;2.67;;;2.13;;
7142;SDS011;3613;48.902;9.204;2024-03-22T11:11:08;2.43;;;2.23;;
7142;SDS011;3613;48.902;9.204;2024-03-22T11:13:38;3.80;;;2.30;;
7142;SDS011;3613;48.902;9.204;2024-03-22T11:16:04;2.60;;;2.37;;
7142;SDS011;3613;48.902;9.204;2024-03-22T11:18:30;3.23;;;2.50;;
7142;SDS011;3613;48.902;9.204;2024-03-22T11:20:56;4.30;;;2.73;;
7142;SDS011;3613;48.902;9.204;2024-03-22T11:23:22;5.77;;;2.77;;
7142;SDS011;3613;48.902;9.204;2024-03-22T11:25:50;6.93;;;2.60;;
7142;SDS011;3613;48.902;9.204;2024-03-22T11:28:16;4.70;;;2.40;;
7142;SDS011;3613;48.902;9.204;2024-03-22T11:30:42;4.23;;;2.83;;
7142;SDS011;3613;48.902;9.204;2024-03-22T11:33:10;4.57;;;2.63;;
7142;SDS011;3613;48.902;9.204;2024-03-22T11:35:36;4.40;;;2.60;;
7142;SDS011;3613;48.902;9.204;2024-03-22T11:38:04;5.07;;;3.00;;
7142;SDS011;3613;48.902;9.204;2024-03-22T11:40:30;4.53;;;2.80;;
7142;SDS011;3613;48.902;9.204;2024-03-22T11:42:57;5.03;;;2.53;;
7142;SDS011;3613;48.902;9.204;2024-03-22T11:45:24;4.73;;;2.20;;
7142;SDS011;3613;48.902;9.204;2024-03-22T11:47:51;2.67;;;2.27;;
7142;SDS011;3613;48.902;9.204;2024-03-22T11:50:17;6.10;;;2.50;;
7142;SDS011;3613;48.902;9.204;2024-03-22T11:52:43;4.73;;;2.77;;
7142;SDS011;3613;48.902;9.204;2024-03-22T11:55:11;3.87;;;2.53;;
7142;SDS011;3613;48.902;9.204;2024-03-22T11:57:37;3.57;;;2.40;;
7142;SDS011;3613;48.902;9.204;2024-03-22T12:00:05;3.67;;;2.30;;
7142;SDS011;3613;48.902;9.204;2024-03-22T12:02:43;3.07;;;2.60;;
7142;SDS011;3613;48.902;9.204;2024-03-22T12:05:09;3.63;;;2.37;;
7142;SDS011;3613;48.902;9.204;2024-03-22T12:07:37;4.67;;;3.20;;
7142;SDS011;3613;48.902;9.204;2024-03-22T12:10:05;2.60;;;2.23;;
7142;SDS011;3613;48.902;9.204;2024-03-22T12:12:31;2.40;;;2.20;;
7142;SDS011;3613;48.902;9.204;2024-03-22T12:14:56;2.83;;;2.40;;
7142;SDS011;3613;48.902;9.204;2024-03-22T12:17:22;3.07;;;2.20;;
7142;SDS011;3613;48.902;9.204;2024-03-22T12:19:47;2.43;;;2.17;;
7142;SDS011;3613;48.902;9.204;2024-03-22T12:22:13;2.73;;;2.10;;
7142;SDS011;3613;48.902;9.204;2024-03-22T12:24:39;3.00;;;2.27;;
7142;SDS011;3613;48.902;9.204;2024-03-22T12:27:07;2.80;;;2.17;;
7142;SDS011;3613;48.902;9.204;2024-03-22T12:29:33;2.20;;;2.00;;
7142;SDS011;3613;48.902;9.204;2024-03-22T12:31:59;2.47;;;2.00;;
7142;SDS011;3613;48.902;9.204;2024-03-22T12:34:26;2.43;;;2.20;;
7142;SDS011;3613;48.902;9.204;2024-03-22T12:36:54;2.20;;;2.00;;
7142;SDS011;3613;48.902;9.204;2024-03-22T12:39:20;2.60;;;2.27;;
7142;SDS011;3613;48.902;9.204;2024-03-22T12:41:45;3.50;;;2.43;;
7142;SDS011;3613;48.902;9.204;2024-03-22T12:44:14;2.27;;;2.03;;
7142;SDS011;3613;48.902;9.204;2024-03-22T12:46:39;2.60;;;2.10;;
7142;SDS011;3613;48.902;9.204;2024-03-22T12:49:07;2.30;;;1.90;;
7142;SDS011;3613;48.902;9.204;2024-03-22T12:51:34;3.77;;;2.50;;
7142;SDS011;3613;48.902;9.204;2024-03-22T12:54:00;3.13;;;2.07;;
7142;SDS011;3613;48.902;9.204;2024-03-22T12:56:26;4.00;;;2.30;;
7142;SDS011;3613;48.902;9.204;2024-03-22T12:58:52;3.10;;;2.10;;
7142;SDS011;3613;48.902;9.204;2024-03-22T13:01:17;3.63;;;2.07;;
7142;SDS011;3613;48.902;9.204;2024-03-22T13:03:43;3.17;;;2.17;;
7142;SDS011;3613;48.902;9.204;2024-03-22T13:06:09;2.80;;;2.43;;
7142;SDS011;3613;48.902;9.204;2024-03-22T13:08:39;2.27;;;2.07;;
7142;SDS011;3613;48.902;9.204;2024-03-22T13:11:05;2.73;;;1.90;;
7142;SDS011;3613;48.902;9.204;2024-03-22T13:13:34;2.67;;;2.10;;
7142;SDS011;3613;48.902;9.204;2024-03-22T13:16:00;2.00;;;1.80;;
7142;SDS011;3613;48.902;9.204;2024-03-22T13:18:27;3.37;;;2.50;;
7142;SDS011;3613;48.902;9.204;2024-03-22T13:20:53;2.73;;;2.30;;
7142;SDS011;3613;48.902;9.204;2024-03-22T13:23:19;2.60;;;2.10;;
7142;SDS011;3613;48.902;9.204;2024-03-22T13:25:47;2.23;;;1.80;;
7142;SDS011;3613;48.902;9.204;2024-03-22T13:28:13;2.47;;;2.10;;
7142;SDS011;3613;48.902;9.204;2024-03-22T13:30:39;2.30;;;2.10;;
7142;SDS011;3613;48.902;9.204;2024-03-22T13:33:05;2.20;;;2.00;;
7142;SDS011;3613;48.902;9.204;2024-03-22T13:35:33;2.50;;;2.27;;
7142;SDS011;3613;48.902;9.204;2024-03-22T13:37:59;3.30;;;2.30;;
7142;SDS011;3613;48.902;9.204;2024-03-22T13:40:25;3.07;;;2.07;;
7142;SDS011;3613;48.902;9.204;2024-03-22T13:42:54;3.37;;;1.90;;
7142;SDS011;3613;48.902;9.204;2024-03-22T13:45:19;2.60;;;2.13;;
7142;SDS011;3613;48.902;9.204;2024-03-22T13:47:45;2.53;;;1.83;;
7142;SDS011;3613;48.902;9.204;2024-03-22T13:50:11;2.80;;;1.93;;
7142;SDS011;3613;48.902;9.204;2024-03-22T13:52:37;2.37;;;2.17;;
7142;SDS011;3613;48.902;9.204;2024-03-22T13:55:03;2.10;;;1.90;;
7142;SDS011;3613;48.902;9.204;2024-03-22T13:57:29;2.00;;;1.80;;
7142;SDS011;3613;48.902;9.204;2024-03-22T13:59:55;2.17;;;1.83;;
7142;SDS011;3613;48.902;9.204;2024-03-22T14:02:21;2.43;;;2.10;;
7142;SDS011;3613;48.902;9.204;2024-03-22T14:04:46;3.00;;;2.00;;
7142;SDS011;3613;48.902;9.204;2024-03-22T14:07:12;2.63;;;1.80;;
7142;SDS011;3613;48.902;9.204;2024-03-22T14:09:38;2.53;;;1.77;;
7142;SDS011;3613;48.902;9.204;2024-03-22T14:12:05;3.23;;;2.10;;
7142;SDS011;3613;48.902;9.204;2024-03-22T14:14:31;1.97;;;1.77;;
7142;SDS011;3613;48.902;9.204;2024-03-22T14:16:57;3.27;;;2.33;;
7142;SDS011;3613;48.902;9.204;2024-03-22T14:19:25;2.83;;;1.90;;
7142;SDS011;3613;48.902;9.204;2024-03-22T14:21:50;1.80;;;1.70;;
7142;SDS011;3613;48.902;9.204;2024-03-22T14:24:16;2.03;;;1.83;;
7142;SDS011;3613;48.902;9.204;2024-03-22T14:26:41;2.00;;;1.60;;
7142;SDS011;3613;48.902;9.204;2024-03-22T14:29:13;1.90;;;1.63;;
7142;SDS011;3613;48.902;9.204;2024-03-22T14:31:39;2.00;;;1.60;;
7142;SDS011;3613;48.902;9.204;2024-03-22T14:34:08;3.43;;;2.10;;
7142;SDS011;3613;48.902;9.204;2024-03-22T14:36:33;3.67;;;2.10;;
7142;SDS011;3613;48.902;9.204;2024-03-22T14:38:59;2.77;;;1.90;;
7142;SDS011;3613;48.902;9.204;2024-03-22T14:41:30;2.30;;;2.10;;
7142;SDS011;3613;48.902;9.204;2024-03-22T14:43:56;2.57;;;2.10;;
7142;SDS011;3613;48.902;9.204;2024-03-22T14:46:22;2.53;;;1.80;;
7142;SDS011;3613;48.902;9.204;2024-03-22T14:48:53;2.17;;;1.97;;
7142;SDS011;3613;48.902;9.204;2024-03-22T14:51:21;2.10;;;1.87;;
7142;SDS011;3613;48.902;9.204;2024-03-22T14:53:47;2.33;;;2.00;;
7142;SDS011;3613;48.902;9.204;2024-03-22T14:56:12;2.43;;;2.10;;
7142;SDS011;3613;48.902;9.204;2024-03-22T14:58:39;2.27;;;1.70;;
7142;SDS011;3613;48.902;9.204;2024-03-22T15:01:05;2.97;;;2.00;;
7142;SDS011;3613;48.902;9.204;2024-03-22T15:03:31;3.27;;;2.10;;
7142;SDS011;3613;48.902;9.204;2024-03-22T15:05:59;3.07;;;2.10;;
7142;SDS011;3613;48.902;9.204;2024-03-22T15:08:25;2.47;;;2.00;;
7142;SDS011;3613;48.902;9.204;2024-03-22T15:10:51;2.27;;;1.90;;
7142;SDS011;3613;48.902;9.204;2024-03-22T15:13:19;2.10;;;1.90;;
7142;SDS011;3613;48.902;9.204;2024-03-22T15:15:55;2.20;;;1.90;;